Time;durP1;ratioP1;P1;durP2;ratioP2;P2;SDS_P1;SDS_P2;PMS_P1;PMS_P2;Temp;Humidity;BMP_temperature;BMP_pressure;BME280_temperature;BME280_humidity;BME280_pressure;Samples;Min_cycle;Max_cycle;Signal;HPM_P1;HPM_P2
2022/07/19 00:00:23;;;;;;;3.20;1.20;;;;;;;24.57;32.50;97551.81;4968677;28;20266;-75
2022/07/19 00:02:48;;;;;;;2.42;1.25;;;;;;;24.57;31.91;97549.16;4944894;28;20139;-75
2022/07/19 00:05:14;;;;;;;1.42;1.20;;;;;;;24.52;32.23;97554.63;4945012;28;20177;-75
2022/07/19 00:07:41;;;;;;;1.70;1.48;;;;;;;24.49;32.00;97558.75;4940677;28;20273;-75
2022/07/19 00:10:08;;;;;;;2.00;1.75;;;;;;;24.41;32.45;97562.25;4944128;28;20634;-75
2022/07/19 00:12:34;;;;;;;2.25;1.60;;;;;;;24.34;32.82;97554.78;4977365;28;20638;-75
2022/07/19 00:15:00;;;;;;;3.03;1.60;;;;;;;24.24;33.30;97552.50;4942290;28;20187;-75
2022/07/19 00:17:25;;;;;;;2.47;1.20;;;;;;;24.16;33.98;97556.78;4927466;28;20197;-76
2022/07/19 00:19:51;;;;;;;2.13;1.20;;;;;;;24.10;33.94;97555.44;4944694;28;20199;-75
2022/07/19 00:22:16;;;;;;;1.67;1.33;;;;;;;23.98;34.00;97556.13;4936878;28;20626;-75
2022/07/19 00:24:42;;;;;;;2.22;1.90;;;;;;;23.97;34.13;97557.22;4959875;28;20359;-75
2022/07/19 00:27:07;;;;;;;3.95;1.55;;;;;;;23.90;34.37;97559.63;4958393;28;20208;-75
2022/07/19 00:29:32;;;;;;;2.45;1.63;;;;;;;23.87;34.62;97562.91;4943148;28;20213;-75
2022/07/19 00:31:58;;;;;;;2.22;1.10;;;;;;;23.81;34.66;97556.22;4912465;28;20252;-75
2022/07/19 00:34:23;;;;;;;2.20;1.40;;;;;;;23.71;34.60;97550.16;4960797;28;20353;-75
2022/07/19 00:36:49;;;;;;;1.98;1.70;;;;;;;23.64;34.53;97555.19;4953846;28;20627;-75
2022/07/19 00:39:14;;;;;;;2.08;1.52;;;;;;;23.63;34.41;97553.66;4924861;28;20276;-75
2022/07/19 00:41:43;;;;;;;1.50;1.40;;;;;;;23.51;34.82;97558.84;4946324;28;20195;-75
2022/07/19 00:44:10;;;;;;;1.33;1.23;;;;;;;23.54;34.28;97559.00;4956264;28;20138;-75
2022/07/19 00:46:35;;;;;;;2.55;1.48;;;;;;;23.53;34.16;97561.97;4961037;28;20220;-75
2022/07/19 00:49:01;;;;;;;3.47;1.50;;;;;;;23.50;34.21;97565.28;4944749;28;20651;-75
2022/07/19 00:51:28;;;;;;;3.45;1.50;;;;;;;23.52;34.26;97563.06;4960279;28;20329;-75
2022/07/19 00:53:55;;;;;;;2.17;1.17;;;;;;;23.45;34.07;97560.91;4961372;28;20204;-75
2022/07/19 00:56:21;;;;;;;3.53;1.40;;;;;;;23.51;33.67;97559.63;4953848;28;20279;-75
2022/07/19 00:58:46;;;;;;;2.28;1.60;;;;;;;23.52;34.45;97547.88;4943445;28;20197;-75
2022/07/19 01:01:12;;;;;;;2.20;1.45;;;;;;;23.52;34.59;97555.09;4942824;28;20626;-75
2022/07/19 01:03:39;;;;;;;2.38;1.45;;;;;;;23.45;34.85;97557.47;4938802;28;20306;-75
2022/07/19 01:06:05;;;;;;;2.10;1.73;;;;;;;23.36;34.56;97555.63;4961007;28;20376;-75
2022/07/19 01:08:31;;;;;;;2.38;1.40;;;;;;;23.34;34.77;97551.75;4946170;28;20183;-75
2022/07/19 01:10:57;;;;;;;2.90;1.88;;;;;;;23.30;35.13;97559.53;4960362;28;20214;-75
2022/07/19 01:13:23;;;;;;;2.63;2.30;;;;;;;23.27;35.01;97556.75;4946158;28;20704;-75
2022/07/19 01:15:48;;;;;;;2.80;1.48;;;;;;;23.18;35.51;97552.25;4948746;28;20220;-75
2022/07/19 01:18:14;;;;;;;3.97;1.50;;;;;;;23.14;35.48;97548.66;4948629;28;20192;-75
2022/07/19 01:20:39;;;;;;;1.90;1.30;;;;;;;23.10;35.09;97542.44;4964767;28;20227;-75
2022/07/19 01:23:04;;;;;;;2.33;1.50;;;;;;;23.11;34.86;97543.97;4931812;28;20188;-75
2022/07/19 01:25:32;;;;;;;2.88;1.50;;;;;;;23.11;35.02;97548.53;4948575;28;20195;-75
2022/07/19 01:27:58;;;;;;;3.35;1.55;;;;;;;23.09;35.55;97540.88;4922837;28;20283;-75
2022/07/19 01:30:24;;;;;;;2.20;1.42;;;;;;;;;;4931279;28;20646;-75
2022/07/19 01:32:54;;;;;;;1.35;1.25;;;;;;;23.04;35.41;97543.66;4949968;28;20643;-75
2022/07/19 01:35:19;;;;;;;2.42;1.30;;;;;;;23.03;35.17;97543.97;4931314;28;20282;-76
2022/07/19 01:37:45;;;;;;;2.10;1.50;;;;;;;23.03;34.84;97542.13;4947745;28;20206;-75
2022/07/19 01:40:16;;;;;;;5.50;1.70;;;;;;;22.94;34.96;97538.69;4947813;28;20173;-75
2022/07/19 01:42:42;;;;;;;2.42;1.50;;;;;;;22.96;35.48;97542.59;4963827;28;20269;-76
2022/07/19 01:45:08;;;;;;;1.60;1.30;;;;;;;22.95;35.48;97533.06;4943256;28;20188;-75
2022/07/19 01:47:35;;;;;;;2.28;1.75;;;;;;;22.96;35.75;97536.50;4963995;28;20723;-75
2022/07/19 01:50:00;;;;;;;4.25;1.40;;;;;;;22.99;35.29;97544.59;4947644;28;20196;-75
2022/07/19 01:52:26;;;;;;;1.60;1.50;;;;;;;22.99;35.22;97539.28;4931697;28;20204;-75
2022/07/19 01:54:51;;;;;;;1.88;1.27;;;;;;;22.99;35.46;97531.31;4947921;28;20322;-75
2022/07/19 01:57:16;;;;;;;1.83;1.40;;;;;;;22.98;35.19;97529.78;4947960;28;20179;-75
2022/07/19 01:59:42;;;;;;;2.63;1.45;;;;;;;23.02;35.36;97531.81;4963977;28;20813;-75
2022/07/19 02:02:07;;;;;;;1.60;1.50;;;;;;;22.97;35.20;97522.91;4947337;28;20678;-75
2022/07/19 02:04:33;;;;;;;2.88;1.45;;;;;;;22.96;35.31;97529.31;4963609;28;20366;-75
2022/07/19 02:06:58;;;;;;;1.70;1.50;;;;;;;22.95;35.14;97519.03;4947243;28;20314;-75
2022/07/19 02:09:24;;;;;;;2.90;1.70;;;;;;;22.94;35.16;97518.22;4947664;28;20173;-75
2022/07/19 02:11:50;;;;;;;1.77;1.17;;;;;;;22.96;34.65;97509.94;4947208;28;20079;-75
2022/07/19 02:14:15;;;;;;;1.65;1.33;;;;;;;22.98;34.77;97519.16;4946616;28;20318;-76
2022/07/19 02:16:42;;;;;;;3.25;1.73;;;;;;;22.98;34.90;97505.88;4931310;28;20321;-75
2022/07/19 02:19:08;;;;;;;1.95;1.20;;;;;;;23.00;34.79;97511.66;4945708;28;20199;-75
2022/07/19 02:21:34;;;;;;;2.17;1.50;;;;;;;22.96;35.67;97510.75;4914718;28;20036;-75
2022/07/19 02:24:00;;;;;;;2.72;1.42;;;;;;;22.96;35.42;97510.75;4963741;28;20190;-75
2022/07/19 02:26:25;;;;;;;2.30;1.40;;;;;;;22.84;35.59;97513.25;4949030;28;20649;-76
2022/07/19 02:28:51;;;;;;;1.95;1.35;;;;;;;22.75;35.90;97502.66;4947590;28;20207;-75
2022/07/19 02:31:16;;;;;;;2.25;1.40;;;;;;;22.69;35.66;97500.47;4962781;28;20280;-76
2022/07/19 02:33:42;;;;;;;1.48;1.20;;;;;;;22.68;35.92;97509.53;4963604;28;20335;-75
2022/07/19 02:36:08;;;;;;;2.28;1.42;;;;;;;22.57;35.97;97501.16;4947204;28;20284;-76
2022/07/19 02:38:33;;;;;;;2.28;1.55;;;;;;;22.50;35.82;97508.78;4963081;28;20254;-75
2022/07/19 02:40:59;;;;;;;2.53;1.63;;;;;;;22.46;36.09;97510.50;4994027;28;20218;-77
2022/07/19 02:43:24;;;;;;;2.85;1.42;;;;;;;22.34;36.03;97503.94;4989903;28;20710;-78
2022/07/19 02:45:50;;;;;;;3.35;1.85;;;;;;;22.22;36.76;97504.53;4962791;28;20253;-77
2022/07/19 02:48:15;;;;;;;2.50;1.77;;;;;;;22.21;37.24;97502.22;4980166;28;20211;-77
2022/07/19 02:50:41;;;;;;;2.45;1.65;;;;;;;22.10;37.66;97504.38;4963718;28;20211;-77
2022/07/19 02:53:06;;;;;;;2.15;1.58;;;;;;;22.11;38.01;97503.31;4964255;28;20211;-77
2022/07/19 02:55:32;;;;;;;2.13;1.88;;;;;;;22.07;37.72;97502.34;4947277;28;20317;-77
2022/07/19 02:57:57;;;;;;;1.75;1.38;;;;;;;22.03;37.63;97501.44;4952999;28;20195;-76
2022/07/19 03:00:23;;;;;;;1.92;1.50;;;;;;;22.01;37.41;97498.31;4929686;28;20700;-76
2022/07/19 03:02:48;;;;;;;3.05;1.40;;;;;;;22.02;37.30;97494.56;4962943;28;20230;-76
2022/07/19 03:05:14;;;;;;;1.63;1.50;;;;;;;22.05;37.29;97494.75;4946691;28;20191;-76
2022/07/19 03:07:39;;;;;;;1.70;1.40;;;;;;;22.06;37.36;97484.91;4962922;28;20211;-76
2022/07/19 03:10:05;;;;;;;2.40;1.77;;;;;;;22.09;36.98;97492.25;4962070;28;20570;-76
2022/07/19 03:12:31;;;;;;;1.38;1.25;;;;;;;22.12;37.13;97493.47;4946572;28;20240;-76
2022/07/19 03:14:56;;;;;;;3.00;1.52;;;;;;;22.11;37.04;97494.59;4930157;28;20760;-76
2022/07/19 03:17:22;;;;;;;2.38;1.38;;;;;;;22.11;36.86;97491.94;4949873;28;20215;-76
2022/07/19 03:19:47;;;;;;;3.78;1.77;;;;;;;22.13;36.65;97490.50;4978831;28;20622;-76
2022/07/19 03:22:12;;;;;;;2.53;1.33;;;;;;;22.13;36.80;97495.81;4947450;28;20187;-76
2022/07/19 03:24:38;;;;;;;2.60;1.70;;;;;;;22.11;36.56;97495.34;4962684;28;20635;-76
2022/07/19 03:27:03;;;;;;;1.98;1.40;;;;;;;22.03;36.92;97490.81;4950560;28;20285;-76
2022/07/19 03:29:29;;;;;;;2.35;1.30;;;;;;;22.00;37.04;97496.75;4962753;28;20211;-76
2022/07/19 03:31:54;;;;;;;1.95;1.33;;;;;;;21.97;37.81;97486.75;4929220;28;20184;-76
2022/07/19 03:34:20;;;;;;;2.03;1.45;;;;;;;21.89;38.07;97483.78;4962133;28;20278;-76
2022/07/19 03:36:45;;;;;;;1.55;1.30;;;;;;;21.85;37.99;97490.81;4961628;28;20195;-76
2022/07/19 03:39:10;;;;;;;2.53;1.60;;;;;;;21.78;37.88;97485.19;4947279;28;20719;-76
2022/07/19 03:41:39;;;;;;;2.10;1.42;;;;;;;21.76;37.83;97483.94;4962204;28;20290;-76
2022/07/19 03:44:04;;;;;;;4.57;2.15;;;;;;;21.70;37.58;97493.91;4943089;28;20275;-76
2022/07/19 03:46:30;;;;;;;3.63;1.48;;;;;;;21.63;37.56;97486.41;4962394;28;20185;-76
2022/07/19 03:48:56;;;;;;;1.50;1.40;;;;;;;21.63;37.60;97490.94;4961126;28;20207;-76
2022/07/19 03:51:22;;;;;;;2.25;1.60;;;;;;;21.64;37.11;97487.97;4916277;28;20288;-76
2022/07/19 03:53:48;;;;;;;1.50;1.23;;;;;;;21.72;37.26;97490.94;4945123;28;20279;-76
2022/07/19 03:56:14;;;;;;;2.15;1.20;;;;;;;21.77;37.26;97493.44;4945837;28;20402;-76
2022/07/19 03:58:39;;;;;;;2.10;1.30;;;;;;;21.79;37.71;97494.69;4961541;28;20302;-76
2022/07/19 04:01:06;;;;;;;1.40;1.30;;;;;;;21.80;37.66;97488.31;4961141;28;20295;-76
2022/07/19 04:03:36;;;;;;;2.63;1.75;;;;;;;21.69;38.09;97493.13;4961660;28;20274;-76
2022/07/19 04:06:01;;;;;;;2.45;1.70;;;;;;;21.81;38.59;97494.38;4961221;28;20215;-76
2022/07/19 04:08:27;;;;;;;2.30;1.40;;;;;;;21.77;38.39;97494.22;4978769;28;20599;-76
2022/07/19 04:10:52;;;;;;;2.53;1.50;;;;;;;21.79;37.84;97504.53;4978629;28;20291;-76
2022/07/19 04:13:17;;;;;;;3.45;1.42;;;;;;;21.79;37.82;97502.63;4945783;28;20622;-76
2022/07/19 04:15:43;;;;;;;3.28;1.70;;;;;;;21.83;37.58;97500.16;4945422;28;20309;-76
2022/07/19 04:18:08;;;;;;;1.50;1.23;;;;;;;21.85;38.13;97511.25;4946525;28;20653;-76
2022/07/19 04:20:34;;;;;;;2.30;1.50;;;;;;;21.87;38.48;97501.09;4935685;28;20732;-76
2022/07/19 04:22:59;;;;;;;3.92;1.65;;;;;;;21.93;38.45;97501.72;4944142;28;20278;-76
2022/07/19 04:25:25;;;;;;;1.67;1.42;;;;;;;21.91;38.63;97506.56;4961406;28;20101;-76
2022/07/19 04:27:50;;;;;;;3.65;1.52;;;;;;;21.86;39.16;97505.59;4961806;28;20198;-76
2022/07/19 04:30:15;;;;;;;1.98;1.42;;;;;;;21.94;39.14;97508.59;4945170;28;20250;-76
2022/07/19 04:32:41;;;;;;;2.95;1.95;;;;;;;21.97;39.14;97508.75;4946951;28;20633;-76
2022/07/19 04:35:07;;;;;;;1.90;1.30;;;;;;;21.96;39.39;97493.16;4945939;28;20193;-76
2022/07/19 04:37:32;;;;;;;1.60;1.48;;;;;;;22.02;39.19;97498.00;4941797;28;20277;-76
2022/07/19 04:39:57;;;;;;;2.03;1.60;;;;;;;22.09;39.40;97505.50;4977721;28;20544;-76
2022/07/19 04:42:23;;;;;;;4.53;1.92;;;;;;;22.08;39.74;97503.94;4945279;28;20266;-76
2022/07/19 04:44:48;;;;;;;4.03;1.35;;;;;;;22.17;39.27;97504.69;4942607;28;20181;-76
2022/07/19 04:47:14;;;;;;;2.35;1.40;;;;;;;22.28;38.54;97496.47;4944387;28;20363;-76
2022/07/19 04:49:39;;;;;;;1.50;1.40;;;;;;;22.39;37.85;97503.78;4943355;28;20164;-76
2022/07/19 04:52:05;;;;;;;1.48;1.38;;;;;;;22.47;38.21;97499.59;4911993;28;20273;-76
2022/07/19 04:54:31;;;;;;;2.83;1.35;;;;;;;22.58;39.07;97503.47;4946850;28;20165;-76
2022/07/19 04:56:56;;;;;;;1.77;1.40;;;;;;;22.64;38.93;97498.78;4961249;28;20292;-76
2022/07/19 04:59:21;;;;;;;1.92;1.25;;;;;;;22.70;38.35;97496.72;4944667;28;20963;-76
2022/07/19 05:01:47;;;;;;;1.90;1.20;;;;;;;22.77;37.94;97494.38;4940650;28;20435;-76
2022/07/19 05:04:12;;;;;;;49.80;6.00;;;;;;;22.82;38.45;97494.19;4943581;28;20176;-76
2022/07/19 05:06:37;;;;;;;30.30;4.55;;;;;;;22.87;38.38;97496.69;4926842;28;20173;-76
2022/07/19 05:09:03;;;;;;;3.97;1.70;;;;;;;22.93;38.16;97495.44;4977084;28;20247;-76
2022/07/19 05:11:29;;;;;;;2.83;1.40;;;;;;;22.98;37.74;97497.91;4976305;28;20227;-76
2022/07/19 05:13:54;;;;;;;3.10;1.77;;;;;;;23.02;37.60;97494.63;4975645;28;20179;-76
2022/07/19 05:16:19;;;;;;;2.28;1.20;;;;;;;23.10;37.62;97494.63;4945889;28;20219;-76
2022/07/19 05:18:45;;;;;;;3.38;1.65;;;;;;;23.18;37.67;97495.69;4927658;28;20339;-76
2022/07/19 05:21:10;;;;;;;4.47;1.92;;;;;;;23.26;37.41;97494.09;4944820;28;20661;-76
2022/07/19 05:23:36;;;;;;;2.15;1.63;;;;;;;23.32;37.12;97490.94;4943412;28;20189;-76
2022/07/19 05:26:01;;;;;;;2.42;1.92;;;;;;;23.39;36.69;97490.44;4959950;28;20665;-76
2022/07/19 05:28:26;;;;;;;3.22;1.50;;;;;;;23.52;36.29;97496.63;4959828;28;20610;-76
2022/07/19 05:30:52;;;;;;;1.90;1.52;;;;;;;23.61;36.94;97494.69;4943697;28;20189;-76
2022/07/19 05:33:17;;;;;;;4.05;1.90;;;;;;;23.72;36.67;97495.09;4943568;28;20240;-76
2022/07/19 05:35:42;;;;;;;2.28;1.58;;;;;;;23.83;36.32;97496.31;4943286;28;20318;-76
2022/07/19 05:38:08;;;;;;;1.83;1.45;;;;;;;23.98;35.90;97494.97;4960065;28;20626;-76
2022/07/19 05:40:33;;;;;;;2.17;1.60;;;;;;;24.05;35.88;97497.88;4932384;28;20266;-76
2022/07/19 05:43:00;;;;;;;1.75;1.35;;;;;;;24.19;36.18;97502.94;4960107;28;20193;-76
2022/07/19 05:45:26;;;;;;;3.20;1.50;;;;;;;24.28;36.33;97500.19;4939531;28;20765;-76
2022/07/19 05:47:51;;;;;;;3.08;2.00;;;;;;;24.39;36.78;97503.25;4943884;28;20333;-76
2022/07/19 05:50:17;;;;;;;2.25;1.67;;;;;;;24.47;36.77;97500.50;4959813;28;20254;-76
2022/07/19 05:52:42;;;;;;;3.00;1.63;;;;;;;24.56;36.93;97505.78;4960356;28;20586;-76
2022/07/19 05:55:08;;;;;;;2.75;1.50;;;;;;;24.69;36.71;97506.59;4943120;28;20211;-76
2022/07/19 05:57:33;;;;;;;3.08;1.45;;;;;;;24.78;36.30;97509.94;4977534;28;20278;-76
2022/07/19 05:59:58;;;;;;;2.70;1.63;;;;;;;24.92;36.26;97503.56;4945311;28;20256;-76
2022/07/19 06:02:24;;;;;;;4.13;1.60;;;;;;;25.02;36.52;97508.44;4980431;28;20287;-76
2022/07/19 06:04:49;;;;;;;2.78;2.05;;;;;;;25.14;36.38;97510.31;4970655;28;20576;-76
2022/07/19 06:07:15;;;;;;;3.97;1.65;;;;;;;25.22;35.31;97507.59;4946047;28;20204;-76
2022/07/19 06:09:40;;;;;;;3.72;2.03;;;;;;;25.33;34.31;97512.50;4964044;28;20160;-76
2022/07/19 06:12:06;;;;;;;1.50;1.40;;;;;;;25.48;34.09;97505.72;4931190;28;20200;-76
2022/07/19 06:14:31;;;;;;;3.78;2.10;;;;;;;25.53;34.01;97516.94;4947703;28;20305;-76
2022/07/19 06:16:56;;;;;;;4.80;2.22;;;;;;;25.60;33.93;97517.16;4946835;28;20282;-76
2022/07/19 06:19:22;;;;;;;2.05;1.50;;;;;;;25.68;34.33;97517.38;4963677;28;20109;-76
2022/07/19 06:21:47;;;;;;;2.65;1.50;;;;;;;25.73;33.83;97523.25;4949357;28;20354;-76
2022/07/19 06:24:13;;;;;;;2.83;1.48;;;;;;;25.83;33.53;97522.03;4949191;28;20569;-76
2022/07/19 06:26:38;;;;;;;4.15;1.80;;;;;;;26.00;33.32;97522.94;4928757;28;20631;-76
2022/07/19 06:29:04;;;;;;;3.40;1.60;;;;;;;26.21;33.17;97522.75;4938119;28;20658;-76
2022/07/19 06:31:29;;;;;;;2.45;1.63;;;;;;;26.37;32.78;97522.81;4948071;28;20301;-76
2022/07/19 06:33:54;;;;;;;2.08;1.73;;;;;;;26.58;32.61;97528.72;4962805;28;20187;-76
2022/07/19 06:36:20;;;;;;;1.98;1.50;;;;;;;26.85;32.04;97526.38;4963860;28;20284;-76
2022/07/19 06:38:47;;;;;;;1.83;1.70;;;;;;;27.12;32.21;97519.44;4963862;28;20257;-76
2022/07/19 06:41:13;;;;;;;1.80;1.60;;;;;;;27.41;31.69;97518.22;4946522;28;20165;-76
2022/07/19 06:43:39;;;;;;;2.55;1.45;;;;;;;27.70;31.40;97516.22;4943892;28;20533;-76
2022/07/19 06:46:05;;;;;;;4.00;2.03;;;;;;;28.01;31.39;97512.69;4944659;28;20646;-76
2022/07/19 06:48:30;;;;;;;3.13;1.80;;;;;;;28.25;30.79;97518.91;4978724;28;20211;-76
2022/07/19 06:50:55;;;;;;;3.03;2.30;;;;;;;28.62;30.72;97513.16;4979468;28;20203;-76
2022/07/19 06:53:21;;;;;;;3.42;1.83;;;;;;;28.78;30.67;97510.34;4962936;28;20341;-76
2022/07/19 06:55:46;;;;;;;3.55;1.98;;;;;;;29.00;30.63;97518.78;4948496;28;20199;-76
2022/07/19 06:58:12;;;;;;;2.85;1.55;;;;;;;29.38;30.75;97511.75;4962884;28;20708;-76
2022/07/19 07:00:38;;;;;;;2.17;1.73;;;;;;;29.62;30.30;97514.00;4945343;28;20187;-76
2022/07/19 07:03:03;;;;;;;5.20;2.20;;;;;;;30.00;31.53;97512.22;4952513;28;20208;-79
2022/07/19 07:05:28;;;;;;;3.05;2.05;;;;;;;30.06;30.54;97508.09;4943980;28;20204;-76
2022/07/19 07:07:54;;;;;;;2.50;1.92;;;;;;;30.31;30.21;97506.84;4972655;28;20203;-78
2022/07/19 07:10:20;;;;;;;4.03;2.22;;;;;;;30.58;30.33;97511.00;4946583;28;20719;-77
2022/07/19 07:12:45;;;;;;;2.22;1.98;;;;;;;30.78;29.53;97514.28;4946635;28;20276;-77
2022/07/19 07:15:11;;;;;;;2.63;1.80;;;;;;;31.16;28.49;97512.31;4962537;28;20633;-77
2022/07/19 07:17:37;;;;;;;2.30;2.10;;;;;;;31.36;28.44;97514.78;4945538;28;20215;-76
2022/07/19 07:20:05;;;;;;;2.55;1.92;;;;;;;31.35;28.74;97516.69;4961600;28;20385;-76
2022/07/19 07:22:31;;;;;;;2.40;2.10;;;;;;;31.57;28.04;97511.47;4955311;28;20072;-77
2022/07/19 07:24:57;;;;;;;2.83;2.10;;;;;;;31.83;28.69;97518.53;4911995;28;20211;-77
2022/07/19 07:27:22;;;;;;;2.85;2.47;;;;;;;32.21;28.11;97521.06;4951462;28;20697;-77
2022/07/19 07:29:48;;;;;;;2.45;1.98;;;;;;;32.60;27.45;97510.41;4948400;28;20195;-77
2022/07/19 07:32:13;;;;;;;2.47;1.95;;;;;;;32.74;26.56;97506.97;4960549;28;20215;-76
2022/07/19 07:34:39;;;;;;;2.08;1.92;;;;;;;32.96;27.17;97507.75;4959713;28;20242;-77
2022/07/19 07:37:04;;;;;;;3.40;2.30;;;;;;;33.49;27.00;97508.91;4928318;28;20423;-77
2022/07/19 07:39:29;;;;;;;2.75;2.08;;;;;;;33.67;25.25;97505.38;4974708;28;21316;-77
2022/07/19 07:41:55;;;;;;;3.65;2.53;;;;;;;33.75;25.64;97499.59;4945865;28;20195;-77
2022/07/19 07:44:20;;;;;;;2.25;2.15;;;;;;;34.05;24.24;97500.28;4926772;28;20255;-76
2022/07/19 07:46:46;;;;;;;2.47;1.80;;;;;;;34.25;24.62;97498.66;4947438;28;20281;-77
2022/07/19 07:49:11;;;;;;;2.50;2.30;;;;;;;34.57;24.35;97503.13;4961749;28;20301;-76
2022/07/19 07:51:37;;;;;;;3.78;2.58;;;;;;;34.96;21.10;97498.63;4962216;28;20196;-76
2022/07/19 07:54:03;;;;;;;2.47;2.33;;;;;;;35.39;19.18;97495.59;4945641;28;20280;-76
2022/07/19 07:56:28;;;;;;;2.42;2.05;;;;;;;35.65;19.97;97494.16;4945859;28;20191;-76
2022/07/19 07:58:53;;;;;;;2.30;1.92;;;;;;;35.81;19.86;97499.03;4962238;28;20301;-75
2022/07/19 08:01:19;;;;;;;3.30;2.08;;;;;;;35.88;19.28;97490.81;4945213;28;20185;-76
2022/07/19 08:03:44;;;;;;;12.48;2.72;;;;;;;36.43;19.90;97488.19;4962113;28;20713;-77
2022/07/19 08:06:10;;;;;;;2.17;2.00;;;;;;;36.78;18.30;97486.16;4945673;28;20227;-76
2022/07/19 08:08:37;;;;;;;5.15;2.40;;;;;;;36.89;18.71;97478.59;4945981;28;20274;-77
2022/07/19 08:11:03;;;;;;;2.08;1.98;;;;;;;37.15;18.34;97471.56;4961572;28;20255;-76
2022/07/19 08:13:28;;;;;;;2.42;2.22;;;;;;;37.52;17.30;97477.16;4945660;28;20192;-75
2022/07/19 08:15:54;;;;;;;2.28;1.90;;;;;;;37.64;17.66;97482.72;4945423;28;20102;-76
2022/07/19 08:18:19;;;;;;;5.47;2.63;;;;;;;37.78;17.99;97484.44;4947111;28;20195;-76
2022/07/19 08:20:45;;;;;;;2.40;2.15;;;;;;;37.94;17.84;97477.50;4945275;28;20678;-76
2022/07/19 08:23:10;;;;;;;2.90;2.17;;;;;;;38.01;16.44;97480.09;4945072;28;20686;-76
2022/07/19 08:25:36;;;;;;;2.65;2.40;;;;;;;38.22;17.10;97478.91;4945323;28;20669;-76
2022/07/19 08:28:02;;;;;;;2.50;2.40;;;;;;;38.07;16.77;97483.84;4945187;28;20259;-76
2022/07/19 08:30:27;;;;;;;6.78;2.58;;;;;;;38.34;17.28;97489.13;4928479;28;20269;-76
2022/07/19 08:32:53;;;;;;;2.30;2.10;;;;;;;38.72;16.33;97488.66;4961379;28;20247;-76
2022/07/19 08:35:18;;;;;;;3.15;2.92;;;;;;;38.63;15.97;97482.28;4961655;28;20143;-76
2022/07/19 08:37:44;;;;;;;5.57;2.53;;;;;;;38.70;16.14;97493.03;4945217;28;20125;-76
2022/07/19 08:40:09;;;;;;;3.83;2.33;;;;;;;38.76;16.44;97485.84;4944721;28;20222;-76
2022/07/19 08:42:35;;;;;;;3.00;2.70;;;;;;;39.02;15.90;97488.72;4961675;28;20176;-77
2022/07/19 08:45:04;;;;;;;2.72;2.17;;;;;;;39.29;15.72;97478.31;4941150;28;20195;-76
2022/07/19 08:47:31;;;;;;;3.15;2.75;;;;;;;39.28;15.91;97479.53;4946660;28;20211;-76
2022/07/19 08:49:58;;;;;;;2.38;2.17;;;;;;;39.25;16.07;97485.84;4960757;28;20630;-77
2022/07/19 08:52:24;;;;;;;2.83;2.63;;;;;;;39.46;15.25;97481.75;4944826;28;20617;-75
2022/07/19 08:54:49;;;;;;;2.58;2.42;;;;;;;39.86;15.18;97488.88;4961536;28;20129;-76
2022/07/19 08:59:58;;;;;;;3.05;2.50;;;;;;;39.09;14.85;97477.69;4959057;28;20173;-76
2022/07/19 09:02:24;;;;;;;2.95;2.70;;;;;;;39.46;15.11;97483.72;4960931;28;20200;-75
2022/07/19 09:05:00;;;;;;;2.78;2.67;;;;;;;39.40;15.55;97480.78;4928498;28;20305;-75
2022/07/19 09:07:26;;;;;;;3.25;2.95;;;;;;;39.48;15.33;97475.88;4944869;28;20356;-76
2022/07/19 09:09:52;;;;;;;3.17;3.05;;;;;;;39.74;15.80;97474.03;4944484;28;20187;-76
2022/07/19 09:12:17;;;;;;;3.42;3.28;;;;;;;39.84;14.92;97474.91;4961259;28;20195;-76
2022/07/19 09:14:53;;;;;;;3.22;2.38;;;;;;;40.02;14.87;97485.34;4946320;28;20192;-76
2022/07/19 09:17:19;;;;;;;3.53;3.22;;;;;;;40.51;14.86;97482.31;4944945;28;20204;-76
2022/07/19 09:19:46;;;;;;;4.05;2.60;;;;;;;40.54;14.53;97476.00;4947507;28;20189;-76
2022/07/19 09:22:13;;;;;;;3.28;3.08;;;;;;;40.85;14.29;97485.59;4922163;28;20215;-76
2022/07/19 09:24:48;;;;;;;2.65;2.45;;;;;;;41.12;13.84;97480.38;4946287;28;20207;-76
2022/07/19 09:27:16;;;;;;;3.88;2.67;;;;;;;40.82;14.64;97468.09;4960815;28;20165;-76
2022/07/19 09:29:47;;;;;;;2.75;2.50;;;;;;;40.81;14.97;97461.88;4944171;28;20239;-77
2022/07/19 09:32:15;;;;;;;2.72;2.63;;;;;;;40.83;14.44;97469.63;4944471;28;20338;-75
2022/07/19 09:34:51;;;;;;;3.55;2.85;;;;;;;40.73;13.71;97470.72;4946168;28;20237;-75
2022/07/19 09:37:28;;;;;;;3.08;2.88;;;;;;;40.70;13.33;97466.91;4948431;28;20360;-76
2022/07/19 09:39:58;;;;;;;3.50;3.17;;;;;;;40.99;13.15;97466.78;4948126;28;20242;-76
2022/07/19 09:42:35;;;;;;;3.13;2.92;;;;;;;40.94;13.46;97466.53;4931556;28;20241;-76
2022/07/19 09:45:04;;;;;;;3.13;2.70;;;;;;;41.07;13.68;97466.53;4961353;28;20263;-76
2022/07/19 09:47:32;;;;;;;2.75;2.50;;;;;;;41.24;13.48;97469.84;4949331;28;20374;-75
2022/07/19 09:49:57;;;;;;;2.80;2.60;;;;;;;41.64;13.48;97463.75;4931276;28;20648;-76
2022/07/19 09:52:23;;;;;;;2.78;2.45;;;;;;;41.57;12.32;97469.50;4947930;28;20265;-76
2022/07/19 09:54:51;;;;;;;4.75;2.80;;;;;;;41.71;12.26;97460.78;4948129;28;20173;-76
2022/07/19 09:57:22;;;;;;;2.60;2.40;;;;;;;41.89;11.89;97457.41;4947235;28;20205;-75
2022/07/19 09:59:50;;;;;;;2.70;2.50;;;;;;;41.92;13.40;97451.81;4947771;28;20191;-75
2022/07/19 10:02:18;;;;;;;2.70;2.50;;;;;;;41.81;13.16;97454.16;4931498;28;20195;-76
2022/07/19 10:04:44;;;;;;;2.53;2.38;;;;;;;41.85;11.33;97454.81;4964012;28;20187;-75
2022/07/19 10:07:11;;;;;;;4.47;3.08;;;;;;;41.93;12.20;97449.81;4964560;28;20225;-75
2022/07/19 10:09:37;;;;;;;2.97;2.88;;;;;;;42.40;12.13;97446.09;4947709;28;20526;-76
2022/07/19 10:12:02;;;;;;;2.92;2.75;;;;;;;42.59;12.21;97451.63;4947679;28;20360;-75
2022/07/19 10:14:28;;;;;;;2.90;2.70;;;;;;;42.68;11.86;97448.91;4931376;28;20220;-76
2022/07/19 10:16:53;;;;;;;2.90;2.70;;;;;;;42.91;12.06;97444.81;4915169;28;20647;-76
2022/07/19 10:19:18;;;;;;;6.35;3.38;;;;;;;42.37;11.42;97440.75;4930854;28;20248;-75
2022/07/19 10:21:45;;;;;;;6.22;3.00;;;;;;;42.65;12.29;97445.06;4947709;28;20724;-75
2022/07/19 10:24:11;;;;;;;3.53;3.00;;;;;;;43.02;11.52;97434.19;4931142;28;20207;-75
2022/07/19 10:26:38;;;;;;;4.13;2.53;;;;;;;42.91;12.11;97427.63;4930939;28;20268;-75
2022/07/19 10:29:08;;;;;;;3.33;3.03;;;;;;;42.56;12.21;97425.16;4930512;28;20191;-76
2022/07/19 10:31:35;;;;;;;2.92;2.83;;;;;;;42.25;11.79;97423.22;4915099;28;20286;-75
2022/07/19 10:34:08;;;;;;;2.35;2.20;;;;;;;42.40;12.00;97420.66;4947211;28;20203;-75
2022/07/19 10:36:35;;;;;;;2.78;2.65;;;;;;;42.34;11.29;97419.75;4914892;28;20653;-75
2022/07/19 10:39:20;;;;;;;2.75;2.55;;;;;;;41.76;11.30;97427.41;4947089;28;20199;-76
2022/07/19 10:42:08;;;;;;;2.63;2.35;;;;;;;41.95;10.99;97424.75;4947243;28;20551;-75
2022/07/19 10:44:35;;;;;;;4.20;2.60;;;;;;;42.23;11.72;97426.41;4946932;28;20180;-76
2022/07/19 10:47:00;;;;;;;3.88;2.97;;;;;;;42.34;11.27;97419.75;4963458;28;20191;-75
2022/07/19 10:49:43;;;;;;;5.40;2.83;;;;;;;42.64;11.53;97421.66;4962916;28;20227;-75
2022/07/19 10:52:27;;;;;;;2.90;2.58;;;;;;;42.35;11.51;97411.09;4940220;28;20403;-75
2022/07/19 10:55:22;;;;;;;2.90;2.70;;;;;;;42.56;11.03;97404.00;4947225;28;20280;-76
2022/07/19 10:57:49;;;;;;;3.15;2.92;;;;;;;42.80;10.92;97397.94;4947089;28;20179;-76
2022/07/19 11:00:22;;;;;;;2.53;2.40;;;;;;;42.91;11.39;97394.75;4948354;28;20277;-76
2022/07/19 11:02:48;;;;;;;2.85;2.63;;;;;;;42.93;10.05;97397.81;4946716;28;20274;-76
2022/07/19 11:05:24;;;;;;;3.28;2.88;;;;;;;42.91;11.28;97390.00;4930175;28;20268;-76
2022/07/19 11:07:51;;;;;;;2.80;2.60;;;;;;;43.00;11.04;97397.53;4979807;28;20281;-76
2022/07/19 11:10:25;;;;;;;3.08;2.88;;;;;;;43.51;11.05;97385.09;4913788;28;20271;-75
2022/07/19 11:12:50;;;;;;;;;;;;;;;43.26;9.93;97386.22;4947104;28;20653;-75
2022/07/19 11:15:16;;;;;;;3.30;2.63;;;;;;;42.96;10.36;97391.41;4930169;28;20052;-76
2022/07/19 11:18:11;;;;;;;3.47;3.22;;;;;;;42.26;11.45;97386.44;4946493;28;20723;-75
2022/07/19 11:20:36;;;;;;;2.60;2.40;;;;;;;42.50;11.29;97381.16;4921034;28;20216;-76
2022/07/19 11:23:04;;;;;;;2.67;2.58;;;;;;;42.46;10.86;97377.81;4946356;28;20195;-75
2022/07/19 11:25:39;;;;;;;3.33;3.03;;;;;;;42.23;11.60;97388.09;4962552;28;20297;-75
2022/07/19 11:28:04;;;;;;;2.97;2.63;;;;;;;42.22;10.83;97383.09;4946299;28;20596;-75
2022/07/19 11:30:32;;;;;;;3.20;2.92;;;;;;;42.12;11.68;97376.06;4962430;28;20284;-75
2022/07/19 11:33:05;;;;;;;3.35;3.15;;;;;;;41.67;11.21;97378.16;4946198;28;20191;-75